Time;durP1;ratioP1;P1;durP2;ratioP2;P2;SDS_P1;SDS_P2;PMS_P1;PMS_P2;Temp;Humidity;BMP_temperature;BMP_pressure;BME280_temperature;BME280_humidity;BME280_pressure;Samples;Min_cycle;Max_cycle;Signal;HPM_P1;HPM_P2
2022/05/14 00:01:02;;;;;;;0.10;0.10;;;;;;;15.31;58.49;102118.56;5043248;28;20040;-80
2022/05/14 00:03:30;;;;;;;0.10;0.10;;;;;;;15.31;56.91;102108.75;5044963;28;20486;-79
2022/05/14 00:06:01;;;;;;;0.15;0.15;;;;;;;15.20;57.58;102108.97;5044496;28;20040;-79
2022/05/14 00:08:29;;;;;;;0.00;0.00;;;;;;;15.21;57.99;102109.84;5042983;28;20029;-79
2022/05/14 00:13:42;;;;;;;0.00;0.00;;;;;;;15.16;58.74;102096.56;5042069;28;20048;-80
2022/05/14 00:16:10;;;;;;;0.00;0.00;;;;;;;15.18;60.09;102096.56;5047198;28;20025;-79
2022/05/14 00:18:37;;;;;;;0.10;0.10;;;;;;;15.22;59.24;102102.72;5044840;28;20044;-79
2022/05/14 00:21:03;;;;;;;0.00;0.00;;;;;;;15.15;59.54;102101.94;5041726;28;20034;-79
2022/05/14 00:23:30;;;;;;;2.35;0.75;;;;;;;15.11;59.89;102092.25;5046415;28;20021;-80
2022/05/14 00:25:56;;;;;;;0.10;0.10;;;;;;;15.11;58.83;102100.25;5047815;28;20343;-80
2022/05/14 00:28:23;;;;;;;0.00;0.00;;;;;;;15.05;59.79;102101.25;5048102;28;20033;-80
2022/05/14 00:30:49;;;;;;;0.05;0.05;;;;;;;15.00;59.57;102101.34;5046996;28;20096;-80
2022/05/14 00:33:16;;;;;;;0.10;0.10;;;;;;;15.01;60.56;102097.75;5035521;23;20042;-80
2022/05/14 00:35:42;;;;;;;1.08;1.00;;;;;;;15.04;59.59;102107.47;5003857;28;20026;-80
2022/05/14 00:38:08;;;;;;;0.00;0.00;;;;;;;15.03;60.54;102100.41;4997574;28;20094;-80
2022/05/14 00:40:39;;;;;;;0.00;0.00;;;;;;;15.03;61.04;102097.75;4996664;28;20042;-80
2022/05/14 00:43:06;;;;;;;0.03;0.03;;;;;;;14.99;60.04;102096.00;5000685;28;20038;-79
2022/05/14 00:45:35;;;;;;;0.00;0.00;;;;;;;15.00;59.68;102095.09;4998256;28;20026;-80
2022/05/14 00:48:03;;;;;;;0.00;0.00;;;;;;;15.05;59.43;102098.56;4994809;28;20022;-79
2022/05/14 00:50:38;;;;;;;0.03;0.03;;;;;;;15.04;59.00;102099.47;4998945;28;20040;-80
2022/05/14 00:53:08;;;;;;;1.08;1.08;;;;;;;14.97;60.96;102097.84;4995917;28;20491;-80
2022/05/14 00:55:37;;;;;;;2.17;1.45;;;;;;;14.97;60.17;102090.72;4993160;28;20038;-80
2022/05/14 00:58:05;;;;;;;0.30;0.30;;;;;;;14.91;60.10;102095.28;4994916;28;20030;-80
2022/05/14 01:00:32;;;;;;;0.10;0.10;;;;;;;14.94;61.25;102101.47;4998059;28;20039;-80
2022/05/14 01:02:58;;;;;;;0.10;0.10;;;;;;;14.94;60.70;102100.56;4992789;28;20027;-80
2022/05/14 01:05:25;;;;;;;0.00;0.00;;;;;;;14.95;60.31;102099.66;4992344;28;20034;-80
2022/05/14 01:07:54;;;;;;;0.00;0.00;;;;;;;14.94;60.30;102096.13;4992554;28;20034;-80
2022/05/14 01:10:24;;;;;;;0.43;0.43;;;;;;;14.95;60.65;102099.66;4991478;28;20382;-80
2022/05/14 01:12:58;;;;;;;0.10;0.10;;;;;;;14.93;61.09;102098.78;4993968;28;20026;-80
2022/05/14 01:15:39;;;;;;;0.00;0.00;;;;;;;14.93;61.79;102099.69;4992042;28;20133;-80
2022/05/14 01:18:05;;;;;;;0.10;0.10;;;;;;;14.84;61.63;102106.06;4993523;28;20023;-80
2022/05/14 01:20:35;;;;;;;0.00;0.00;;;;;;;14.82;62.33;102104.34;4995041;28;20050;-80
2022/05/14 01:23:30;;;;;;;0.00;0.00;;;;;;;14.92;61.70;102102.41;4993374;28;20042;-80
2022/05/14 01:28:32;;;;;;;0.03;0.03;;;;;;;14.79;60.79;102102.63;5116542;27;20416;-79
2022/05/14 01:31:01;;;;;;;0.05;0.05;;;;;;;14.79;60.52;102109.72;5115170;28;20040;-79
2022/05/14 01:33:29;;;;;;;0.10;0.10;;;;;;;14.80;60.46;102107.00;5118893;28;20449;-79
2022/05/14 01:35:55;;;;;;;0.00;0.00;;;;;;;14.73;62.46;102097.38;5118013;28;20039;-79
2022/05/14 01:38:23;;;;;;;0.43;0.43;;;;;;;14.71;61.91;102099.19;5111928;28;20034;-79
2022/05/14 01:40:50;;;;;;;0.00;0.00;;;;;;;14.74;60.13;102098.25;5119105;27;20035;-77
2022/05/14 01:43:17;;;;;;;0.08;0.08;;;;;;;14.64;63.57;102102.81;5111665;28;20047;-79
2022/05/14 01:45:43;;;;;;;0.10;0.10;;;;;;;14.68;61.37;102109.91;5114322;28;20628;-79
2022/05/14 01:48:10;;;;;;;0.00;0.00;;;;;;;14.64;63.67;102106.38;5115588;28;20058;-80
2022/05/14 01:50:38;;;;;;;0.03;0.03;;;;;;;14.65;61.90;102109.97;5125087;28;20055;-79
2022/05/14 01:53:04;;;;;;;0.10;0.10;;;;;;;14.64;63.07;102113.50;5119436;27;20111;-80
2022/05/14 01:55:30;;;;;;;0.10;0.10;;;;;;;14.59;62.05;102112.69;5118171;28;20031;-80
2022/05/14 01:57:56;;;;;;;0.10;0.10;;;;;;;14.58;61.60;102117.16;5118992;28;20027;-79
2022/05/14 02:00:23;;;;;;;0.10;0.10;;;;;;;14.58;63.05;102114.50;5112246;28;20422;-79
2022/05/14 02:02:49;;;;;;;0.00;0.00;;;;;;;14.57;63.21;102118.94;5111952;28;20047;-79
2022/05/14 02:05:17;;;;;;;0.00;0.00;;;;;;;14.54;63.94;102124.31;5121210;28;20035;-79
2022/05/14 02:07:43;;;;;;;0.20;0.20;;;;;;;14.54;63.91;102119.00;5114702;28;20031;-81
2022/05/14 02:10:10;;;;;;;0.00;0.00;;;;;;;14.49;62.42;102118.19;5120316;28;20063;-80
2022/05/14 02:12:37;;;;;;;0.20;0.20;;;;;;;14.48;64.06;102129.75;5111927;28;20119;-79
2022/05/14 02:15:04;;;;;;;0.10;0.10;;;;;;;14.42;64.63;102123.63;5110931;28;20028;-79
2022/05/14 02:17:30;;;;;;;0.10;0.10;;;;;;;14.43;63.71;102120.94;5109789;28;20093;-80
2022/05/14 02:19:56;;;;;;;0.10;0.10;;;;;;;14.41;63.14;102128.09;5100305;28;20456;-80
2022/05/14 02:22:23;;;;;;;0.00;0.00;;;;;;;14.39;64.07;102121.88;5106437;28;20036;-80
2022/05/14 02:24:49;;;;;;;0.10;0.10;;;;;;;14.34;63.54;102127.31;5106849;28;20174;-79
2022/05/14 02:27:15;;;;;;;0.43;0.43;;;;;;;14.35;64.25;102133.50;5115767;28;20474;-81
2022/05/14 02:29:57;;;;;;;0.03;0.03;;;;;;;14.33;64.13;102129.97;5112262;28;20057;-81
2022/05/14 02:32:25;;;;;;;0.30;0.30;;;;;;;14.34;64.03;102129.97;5105559;28;20032;-79
2022/05/14 02:34:52;;;;;;;0.10;0.10;;;;;;;14.32;64.20;102128.25;5098918;28;20069;-80
2022/05/14 02:37:21;;;;;;;0.10;0.10;;;;;;;14.27;64.56;102127.41;5114583;28;20035;-80
2022/05/14 02:39:47;;;;;;;0.08;0.08;;;;;;;14.27;64.15;102130.97;5095840;28;20032;-80
2022/05/14 02:42:13;;;;;;;0.38;0.38;;;;;;;14.21;63.04;102137.25;5099516;28;20026;-79
2022/05/14 02:44:39;;;;;;;0.10;0.10;;;;;;;14.21;64.51;102137.25;5101155;28;20028;-78
2022/05/14 02:47:06;;;;;;;0.10;0.10;;;;;;;14.17;65.15;102146.22;5102030;28;20017;-77
2022/05/14 02:49:33;;;;;;;3.95;0.70;;;;;;;14.21;64.34;102139.91;5101110;28;20029;-78
2022/05/14 02:51:59;;;;;;;0.75;0.75;;;;;;;14.17;64.77;102137.34;5108579;28;20492;-78
2022/05/14 02:54:26;;;;;;;0.10;0.10;;;;;;;14.16;64.62;102133.78;5103532;28;20040;-78
2022/05/14 02:56:53;;;;;;;0.00;0.00;;;;;;;14.14;65.35;102140.91;5101598;28;20069;-78
2022/05/14 02:59:19;;;;;;;0.08;0.08;;;;;;;14.13;65.77;102147.16;5105123;28;20028;-79
2022/05/14 03:01:48;;;;;;;0.05;0.05;;;;;;;14.11;65.09;102151.63;5097286;28;20035;-79
2022/05/14 03:04:17;;;;;;;0.00;0.00;;;;;;;14.10;65.63;102141.00;5098720;28;20020;-78
2022/05/14 03:06:44;;;;;;;0.10;0.10;;;;;;;14.07;65.60;102145.44;5087890;28;20092;-79
2022/05/14 03:09:10;;;;;;;0.00;0.00;;;;;;;14.06;65.38;102148.16;5092627;28;20036;-78
2022/05/14 03:11:37;;;;;;;0.00;0.00;;;;;;;14.08;64.74;102144.56;5098376;28;20032;-78
2022/05/14 03:14:03;;;;;;;0.60;0.60;;;;;;;14.10;64.52;102149.84;5103482;28;20020;-78
2022/05/14 03:16:29;;;;;;;0.10;0.10;;;;;;;14.09;65.00;102150.75;5097351;28;20111;-78
2022/05/14 03:18:55;;;;;;;0.10;0.10;;;;;;;14.12;65.32;102148.06;5106392;28;20503;-79
2022/05/14 03:21:21;;;;;;;1.77;1.52;;;;;;;14.08;65.91;102136.56;5105138;28;20059;-79
2022/05/14 03:23:47;;;;;;;0.50;0.25;;;;;;;14.08;65.76;102135.66;5104585;28;20046;-80
2022/05/14 03:26:14;;;;;;;0.10;0.10;;;;;;;14.08;65.57;102141.00;5091760;28;20025;-79
2022/05/14 03:28:40;;;;;;;0.08;0.08;;;;;;;14.10;64.64;102141.84;5104133;28;20081;-79
2022/05/14 03:31:06;;;;;;;0.10;0.10;;;;;;;14.09;65.43;102145.41;5104560;28;20028;-78
2022/05/14 03:33:33;;;;;;;2.60;0.40;;;;;;;14.08;65.51;102144.56;5103336;28;20064;-79
2022/05/14 03:35:59;;;;;;;0.55;0.55;;;;;;;14.06;65.95;102143.69;5103714;28;20043;-78
2022/05/14 03:38:25;;;;;;;0.20;0.20;;;;;;;14.07;65.78;102141.91;5099550;28;20040;-78
2022/05/14 03:40:51;;;;;;;0.00;0.00;;;;;;;14.06;64.87;102135.69;5102896;28;20064;-79
2022/05/14 03:43:17;;;;;;;0.10;0.10;;;;;;;14.05;65.02;102135.72;5099428;28;20040;-78
2022/05/14 03:45:43;;;;;;;0.10;0.10;;;;;;;14.04;65.71;102141.94;5099439;28;20043;-78
2022/05/14 03:48:09;;;;;;;0.20;0.20;;;;;;;14.02;65.07;102138.44;5107251;28;20087;-78
2022/05/14 03:50:35;;;;;;;0.52;0.52;;;;;;;14.04;65.41;102139.28;5102674;28;20061;-79
2022/05/14 03:53:02;;;;;;;0.10;0.10;;;;;;;14.01;66.18;102134.00;5104553;28;20073;-79
2022/05/14 03:55:28;;;;;;;2.75;1.85;;;;;;;13.99;65.78;102134.00;5099036;28;20033;-79
2022/05/14 03:57:54;;;;;;;0.00;0.00;;;;;;;14.04;65.25;102133.94;5101930;28;20032;-78
2022/05/14 04:00:20;;;;;;;0.08;0.08;;;;;;;14.02;66.04;102136.66;5101331;28;20024;-79
2022/05/14 04:02:47;;;;;;;0.10;0.10;;;;;;;14.03;65.83;102135.75;5094675;28;20027;-78
2022/05/14 04:05:14;;;;;;;0.10;0.10;;;;;;;14.01;65.80;102145.53;5102188;28;20039;-79
2022/05/14 04:07:42;;;;;;;0.10;0.10;;;;;;;14.03;66.29;102145.50;5095849;28;20043;-80
2022/05/14 04:10:12;;;;;;;0.65;0.65;;;;;;;14.03;64.88;102142.84;5085378;28;20052;-79
2022/05/14 04:12:38;;;;;;;0.10;0.10;;;;;;;14.04;65.46;102144.59;5078474;28;20036;-79
2022/05/14 04:15:05;;;;;;;0.20;0.20;;;;;;;14.07;65.38;102145.44;5094117;28;20541;-79
2022/05/14 04:17:31;;;;;;;0.00;0.00;;;;;;;14.08;64.95;102141.88;5092738;28;20020;-79
2022/05/14 04:19:57;;;;;;;0.10;0.10;;;;;;;14.09;65.25;102148.09;5097085;28;20122;-80
2022/05/14 04:22:27;;;;;;;0.10;0.10;;;;;;;14.13;64.76;102157.81;5099798;28;20105;-80
2022/05/14 04:24:53;;;;;;;0.00;0.00;;;;;;;14.13;65.19;102155.16;5092247;28;20031;-80
2022/05/14 04:27:19;;;;;;;0.03;0.03;;;;;;;14.14;64.29;102162.22;5102574;28;20024;-80
2022/05/14 04:29:45;;;;;;;0.10;0.10;;;;;;;14.13;64.82;102155.16;5090493;28;20028;-80
2022/05/14 04:32:11;;;;;;;0.05;0.05;;;;;;;14.13;65.29;102160.50;5098293;28;20035;-79
2022/05/14 04:34:37;;;;;;;0.47;0.47;;;;;;;14.14;66.05;102166.69;5099471;28;20055;-80
2022/05/14 04:37:03;;;;;;;0.38;0.38;;;;;;;14.17;65.92;102169.34;5095555;28;20409;-80
2022/05/14 04:39:32;;;;;;;0.00;0.00;;;;;;;14.23;65.07;102172.78;5095184;28;20043;-80
2022/05/14 04:42:01;;;;;;;0.00;0.00;;;;;;;14.32;65.16;102170.91;5096237;28;20039;-79
2022/05/14 04:44:29;;;;;;;0.10;0.10;;;;;;;14.42;64.46;102167.19;5098488;28;20043;-78
2022/05/14 04:46:55;;;;;;;0.00;0.00;;;;;;;14.47;64.87;102162.66;5095444;28;20033;-80
2022/05/14 04:49:22;;;;;;;0.85;0.75;;;;;;;14.49;64.81;102171.53;5098738;28;20040;-80
2022/05/14 04:51:48;;;;;;;0.10;0.10;;;;;;;14.54;65.75;102172.34;5105716;28;20301;-78
2022/05/14 04:54:15;;;;;;;0.10;0.10;;;;;;;14.63;65.85;102173.97;5100771;28;20024;-78
2022/05/14 04:56:42;;;;;;;0.00;0.00;;;;;;;14.73;65.92;102166.75;5100157;28;20048;-79
2022/05/14 04:59:08;;;;;;;0.00;0.00;;;;;;;14.83;66.03;102172.81;5093425;28;20261;-78
2022/05/14 05:01:34;;;;;;;0.00;0.00;;;;;;;14.92;64.38;102167.31;5096991;28;20100;-79
2022/05/14 05:04:01;;;;;;;0.03;0.03;;;;;;;14.96;65.03;102173.47;5094454;28;20525;-79
2022/05/14 05:06:28;;;;;;;0.10;0.10;;;;;;;15.03;64.18;102183.16;5109736;28;20039;-79
2022/05/14 05:08:55;;;;;;;0.00;0.00;;;;;;;15.08;63.82;102188.38;5100836;28;20107;-79
2022/05/14 05:11:22;;;;;;;0.00;0.00;;;;;;;15.15;63.79;102187.38;5101739;28;20036;-79
2022/05/14 05:13:49;;;;;;;0.17;0.17;;;;;;;15.20;64.67;102188.16;5102996;28;20032;-78
2022/05/14 05:16:15;;;;;;;0.17;0.17;;;;;;;15.30;64.53;102179.09;5104442;28;20028;-79
2022/05/14 05:18:41;;;;;;;0.00;0.00;;;;;;;15.39;64.36;102175.38;5100898;28;20047;-79
2022/05/14 05:21:08;;;;;;;0.10;0.10;;;;;;;15.42;63.90;102177.97;5098525;28;20084;-78
2022/05/14 05:23:34;;;;;;;0.00;0.00;;;;;;;15.45;63.92;102187.72;5097869;28;20032;-79
2022/05/14 05:26:01;;;;;;;0.15;0.15;;;;;;;15.48;63.96;102193.03;5094465;28;20028;-78
2022/05/14 05:28:28;;;;;;;0.00;0.00;;;;;;;15.53;63.29;102194.69;5100914;28;20043;-78
2022/05/14 05:30:57;;;;;;;0.00;0.00;;;;;;;15.57;63.88;102199.97;5107458;28;20035;-78
2022/05/14 05:33:25;;;;;;;0.45;0.45;;;;;;;15.62;63.47;102201.63;5097622;28;20044;-77
2022/05/14 05:35:52;;;;;;;0.10;0.10;;;;;;;15.65;64.03;102198.03;5106242;28;20035;-77
2022/05/14 05:38:18;;;;;;;0.52;0.52;;;;;;;15.74;63.76;102196.94;5103032;28;20046;-78
2022/05/14 05:40:45;;;;;;;0.00;0.00;;;;;;;15.82;63.38;102209.28;5108246;28;20046;-78
2022/05/14 05:43:12;;;;;;;0.20;0.20;;;;;;;15.90;63.41;102202.91;5097269;28;20023;-78
2022/05/14 05:45:40;;;;;;;0.10;0.10;;;;;;;15.93;63.15;102211.75;5101499;28;20028;-78
2022/05/14 05:48:07;;;;;;;0.73;0.73;;;;;;;15.95;63.05;102214.38;5102908;28;20063;-77
2022/05/14 05:50:33;;;;;;;0.90;0.90;;;;;;;15.99;63.18;102208.09;5104818;28;20046;-79
2022/05/14 05:52:59;;;;;;;1.75;1.65;;;;;;;16.03;63.21;102204.41;5105104;28;20055;-79
2022/05/14 05:58:11;;;;;;;0.30;0.30;;;;;;;16.10;62.65;102207.84;5102043;28;20032;-78
2022/05/14 06:00:38;;;;;;;0.00;0.00;;;;;;;16.07;63.65;102208.78;5108190;28;20056;-80
2022/05/14 06:03:04;;;;;;;2.30;2.10;;;;;;;16.14;63.35;102210.41;5099991;28;20028;-79
2022/05/14 06:05:33;;;;;;;0.10;0.10;;;;;;;16.10;63.03;102214.06;5100172;28;20039;-79
2022/05/14 06:07:59;;;;;;;0.63;0.63;;;;;;;16.17;63.14;102209.47;5093252;28;20025;-79
2022/05/14 06:10:25;;;;;;;0.00;0.00;;;;;;;16.25;62.46;102211.97;5104274;28;20595;-80
2022/05/14 06:12:52;;;;;;;0.00;0.00;;;;;;;16.25;62.77;102212.88;5094414;28;20028;-80
2022/05/14 06:15:20;;;;;;;0.10;0.10;;;;;;;16.29;62.52;102211.00;5103199;28;20428;-79
2022/05/14 06:17:46;;;;;;;0.20;0.20;;;;;;;16.32;62.57;102209.16;5105990;28;20047;-78
2022/05/14 06:20:15;;;;;;;0.00;0.00;;;;;;;16.34;61.77;102219.81;5105972;28;20067;-79
2022/05/14 06:22:41;;;;;;;0.10;0.10;;;;;;;16.42;61.78;102220.50;5106058;28;20088;-79
2022/05/14 06:25:09;;;;;;;0.10;0.10;;;;;;;16.53;61.67;102219.41;5108417;28;20023;-80
2022/05/14 06:27:35;;;;;;;0.10;0.10;;;;;;;16.59;61.59;102222.78;5109740;28;20027;-78
2022/05/14 06:30:01;;;;;;;0.03;0.03;;;;;;;16.62;61.63;102221.84;5105662;28;20032;-79
2022/05/14 06:32:27;;;;;;;0.10;0.10;;;;;;;16.70;61.50;102221.66;5110455;28;20024;-80
2022/05/14 06:34:54;;;;;;;0.00;0.00;;;;;;;16.79;60.88;102218.78;5102257;28;20027;-77
2022/05/14 06:37:20;;;;;;;0.65;0.65;;;;;;;16.84;61.03;102226.69;5105946;28;20511;-79
2022/05/14 06:39:46;;;;;;;0.30;0.30;;;;;;;16.94;60.31;102233.63;5041433;22;20041;-86
2022/05/14 06:42:13;;;;;;;0.00;0.00;;;;;;;17.04;60.16;102229.78;5009520;28;20065;-86
2022/05/14 06:44:40;;;;;;;0.10;0.10;;;;;;;17.16;59.66;102243.78;5013741;28;20045;-86
2022/05/14 06:47:07;;;;;;;0.10;0.10;;;;;;;17.29;59.63;102227.34;5013283;28;20076;-86
2022/05/14 06:49:33;;;;;;;0.00;0.00;;;;;;;17.43;59.54;102231.47;5013983;28;20030;-86
2022/05/14 06:52:03;;;;;;;0.38;0.38;;;;;;;17.54;59.21;102223.16;5011332;28;20117;-86
2022/05/14 06:54:31;;;;;;;0.00;0.00;;;;;;;17.61;58.83;102219.38;5009231;28;20037;-86
2022/05/14 06:57:00;;;;;;;0.10;0.10;;;;;;;17.66;58.37;102228.19;5013786;28;20053;-82
2022/05/14 06:59:27;;;;;;;0.00;0.00;;;;;;;17.76;58.16;102236.84;5015385;28;20084;-79
2022/05/14 07:01:53;;;;;;;0.20;0.20;;;;;;;17.79;57.48;102232.28;5012638;28;20133;-83
2022/05/14 07:07:06;;;;;;;0.35;0.35;;;;;;;17.93;57.43;102231.88;5013840;28;20034;-83
2022/05/14 07:09:33;;;;;;;0.52;0.52;;;;;;;17.95;56.77;102237.22;5015551;28;20045;-83
2022/05/14 07:12:03;;;;;;;1.45;1.35;;;;;;;18.02;56.32;102241.50;5014634;28;20430;-84
2022/05/14 07:14:31;;;;;;;0.10;0.10;;;;;;;18.07;57.52;102249.41;5012770;28;20088;-83
2022/05/14 07:16:58;;;;;;;0.00;0.00;;;;;;;18.22;56.22;102248.94;5005468;28;20033;-83
2022/05/14 07:19:25;;;;;;;0.20;0.20;;;;;;;18.41;56.52;102246.56;5013502;28;20026;-83
2022/05/14 07:21:53;;;;;;;0.00;0.00;;;;;;;18.54;55.76;102233.69;5015214;28;20026;-83
2022/05/14 07:24:22;;;;;;;0.65;0.65;;;;;;;18.65;54.88;102244.06;5008152;28;20096;-89
2022/05/14 07:26:50;;;;;;;0.38;0.38;;;;;;;18.73;55.02;102247.38;5011564;28;20034;-86
2022/05/14 07:29:19;;;;;;;0.45;0.43;;;;;;;18.80;54.22;102249.88;5014470;28;20643;-86
2022/05/14 07:31:45;;;;;;;0.00;0.00;;;;;;;18.87;54.33;102252.31;5014576;28;20026;-86
2022/05/14 07:34:12;;;;;;;0.00;0.00;;;;;;;18.92;54.80;102252.19;5012878;28;20038;-86
2022/05/14 07:37:02;;;;;;;0.20;0.20;;;;;;;19.14;53.80;102244.31;5014087;28;20045;-86
2022/05/14 07:39:32;;;;;;;0.20;0.20;;;;;;;19.16;53.70;102247.81;5012189;28;20038;-86
2022/05/14 07:42:02;;;;;;;0.00;0.00;;;;;;;19.21;52.73;102255.72;5012170;28;20037;-86
2022/05/14 07:44:34;;;;;;;0.00;0.00;;;;;;;19.30;52.96;102251.84;5006455;28;20038;-85
2022/05/14 07:47:01;;;;;;;0.10;0.10;;;;;;;19.31;51.72;102250.91;5007539;28;20022;-86
2022/05/14 07:49:28;;;;;;;0.22;0.22;;;;;;;19.41;51.99;102249.66;5014069;28;20482;-86
2022/05/14 07:51:55;;;;;;;1.10;1.00;;;;;;;19.46;51.87;102250.38;5014340;28;20034;-85
2022/05/14 07:54:23;;;;;;;0.35;0.35;;;;;;;19.50;50.41;102251.13;5014408;28;20113;-85
2022/05/14 07:56:49;;;;;;;0.00;0.00;;;;;;;19.51;49.20;102264.53;5014531;28;20041;-85
2022/05/14 07:59:16;;;;;;;0.00;0.00;;;;;;;19.56;50.14;102261.69;5000398;28;20026;-85
2022/05/14 08:01:42;;;;;;;0.00;0.00;;;;;;;19.62;51.28;102260.59;5012476;28;20037;-85
2022/05/14 08:04:10;;;;;;;0.00;0.00;;;;;;;19.72;50.54;102262.88;5014348;28;20459;-85
2022/05/14 08:06:36;;;;;;;0.20;0.20;;;;;;;19.76;50.69;102266.34;5015257;28;20037;-85
2022/05/14 08:09:03;;;;;;;0.20;0.20;;;;;;;19.86;50.79;102264.22;5015716;28;20040;-85
2022/05/14 08:11:29;;;;;;;2.35;0.57;;;;;;;19.95;50.85;102268.41;5015082;28;20497;-85
2022/05/14 08:13:55;;;;;;;0.03;0.03;;;;;;;20.04;50.78;102263.56;5009386;28;20053;-85
2022/05/14 08:16:22;;;;;;;0.00;0.00;;;;;;;20.13;49.20;102265.03;5001612;28;20022;-85
2022/05/14 08:18:49;;;;;;;0.00;0.00;;;;;;;20.28;48.99;102266.25;5008329;28;20036;-85
2022/05/14 08:24:34;;;;;;;0.32;0.32;;;;;;;20.50;47.22;102249.28;5015024;28;20030;-85
2022/05/14 08:26:50;;;;;;;0.00;0.00;;;;;;;20.54;46.74;102248.22;5017651;28;20042;-84
2022/05/14 08:29:17;;;;;;;0.03;0.03;;;;;;;20.58;44.61;102255.22;5011039;28;20041;-84
2022/05/14 08:31:43;;;;;;;0.10;0.10;;;;;;;20.62;45.35;102264.06;5007360;28;20077;-84
2022/05/14 08:34:09;;;;;;;0.10;0.10;;;;;;;20.63;47.01;102255.91;5012520;28;20045;-84
2022/05/14 08:36:35;;;;;;;0.10;0.10;;;;;;;20.73;46.18;102259.16;5012001;28;20033;-84
2022/05/14 08:39:01;;;;;;;0.03;0.03;;;;;;;20.80;47.10;102262.50;5013490;28;20033;-85
2022/05/14 08:41:28;;;;;;;0.10;0.10;;;;;;;20.82;45.70;102261.47;5003870;28;20130;-85
2022/05/14 08:44:02;;;;;;;0.10;0.10;;;;;;;20.87;44.70;102255.88;5003758;28;20040;-85
2022/05/14 08:46:30;;;;;;;0.80;0.68;;;;;;;20.90;45.71;102260.25;5013449;28;20489;-85
2022/05/14 08:49:05;;;;;;;0.00;0.00;;;;;;;20.95;45.27;102261.84;5007477;28;20085;-85
2022/05/14 08:51:36;;;;;;;2.13;0.32;;;;;;;21.04;44.52;102262.41;5002587;28;20104;-83
2022/05/14 08:54:03;;;;;;;2.55;1.13;;;;;;;21.09;43.35;102261.25;5013187;28;20401;-86
2022/05/14 09:01:52;;;;;;;0.10;0.10;;;;;;;21.29;42.70;102249.63;5146585;27;20320;-81
2022/05/14 09:04:20;;;;;;;0.10;0.10;;;;;;;21.41;44.04;102248.25;5112000;28;20036;-81
2022/05/14 09:06:47;;;;;;;0.00;0.00;;;;;;;21.49;41.95;102251.47;5109388;27;20292;-81
2022/05/14 09:09:14;;;;;;;0.45;0.45;;;;;;;21.56;40.28;102249.44;5112728;27;20059;-81
2022/05/14 09:17:11;;;;;;;0.00;0.00;;;;;;;21.97;42.34;102254.78;5109842;27;20379;-82
2022/05/14 09:19:40;;;;;;;0.10;0.10;;;;;;;22.07;42.25;102259.72;5101840;28;20123;-81
2022/05/14 09:22:31;;;;;;;0.10;0.10;;;;;;;22.18;40.04;102254.75;5099662;28;20444;-83
2022/05/14 09:27:45;;;;;;;0.00;0.00;;;;;;;22.50;41.08;102244.25;5068988;28;20418;-83
2022/05/14 09:30:24;;;;;;;0.10;0.10;;;;;;;22.60;39.18;102245.56;5058325;28;20096;-83
2022/05/14 09:32:50;;;;;;;0.00;0.00;;;;;;;22.73;39.96;102255.75;5065880;28;20052;-83
2022/05/14 09:35:20;;;;;;;0.00;0.00;;;;;;;22.89;39.43;102254.06;5073799;28;20566;-83
2022/05/14 09:37:46;;;;;;;0.05;0.05;;;;;;;23.03;38.30;102247.06;5074458;28;20029;-83
2022/05/14 09:40:22;;;;;;;0.20;0.20;;;;;;;23.32;39.11;102259.16;5074733;28;20029;-84
2022/05/14 09:42:52;;;;;;;0.10;0.10;;;;;;;23.49;38.06;102250.16;5073036;28;20028;-84
2022/05/14 09:47:54;;;;;;;2.08;1.17;;;;;;;23.61;35.75;102250.47;5071767;28;20045;-82
2022/05/14 09:50:29;;;;;;;0.20;0.20;;;;;;;23.65;35.79;102265.56;5077208;28;20032;-83
2022/05/14 09:52:58;;;;;;;0.10;0.10;;;;;;;23.64;35.27;102258.41;5075877;28;20383;-83
2022/05/14 09:55:50;;;;;;;0.40;0.40;;;;;;;23.80;37.28;102253.06;5073334;28;20458;-83
2022/05/14 09:58:56;;;;;;;0.00;0.00;;;;;;;24.07;37.02;102253.41;5073146;28;20506;-82
2022/05/14 10:01:31;;;;;;;0.20;0.20;;;;;;;24.19;38.40;102255.47;5065425;28;20029;-82
2022/05/14 10:06:50;;;;;;;0.08;0.08;;;;;;;24.65;36.58;102241.19;5069727;28;20386;-83
2022/05/14 10:15:25;;;;;;;0.57;0.57;;;;;;;25.15;35.38;102250.00;5119039;27;20137;-80
2022/05/14 10:18:17;;;;;;;0.10;0.10;;;;;;;25.04;34.45;102247.94;5109625;28;20047;-80
2022/05/14 10:21:23;;;;;;;0.32;0.17;;;;;;;25.03;36.09;102240.78;5118782;28;20020;-79
2022/05/14 10:27:19;;;;;;;0.10;0.10;;;;;;;24.94;36.68;102235.03;5120543;28;20032;-80
2022/05/14 10:32:32;;;;;;;0.10;0.10;;;;;;;24.96;36.54;102242.09;5109676;27;20410;-80
2022/05/14 10:37:51;;;;;;;0.60;0.30;;;;;;;25.13;36.32;102246.50;5142615;27;20378;-80
2022/05/14 10:40:39;;;;;;;0.20;0.20;;;;;;;25.09;35.82;102238.66;5152957;27;20027;-82
2022/05/14 10:43:31;;;;;;;0.47;0.45;;;;;;;24.99;34.90;102244.63;5139534;27;20031;-79
2022/05/14 10:45:58;;;;;;;0.35;0.35;;;;;;;24.87;36.24;102246.22;5137420;27;20058;-82
2022/05/14 10:48:50;;;;;;;1.45;1.35;;;;;;;24.80;35.67;102235.81;5141160;27;20020;-82
2022/05/14 10:51:28;;;;;;;0.00;0.00;;;;;;;24.67;37.28;102246.50;5138019;27;20116;-82
2022/05/14 10:53:55;;;;;;;0.00;0.00;;;;;;;24.48;37.30;102243.94;5139412;27;20031;-81
2022/05/14 10:56:27;;;;;;;0.10;0.10;;;;;;;24.44;36.26;102248.66;5128667;27;20045;-80
2022/05/14 11:10:30;;;;;;;0.10;0.10;;;;;;;25.56;36.29;102244.91;5131700;27;20414;-82
2022/05/14 11:13:09;;;;;;;0.30;0.30;;;;;;;25.79;36.04;102249.78;5129466;27;20625;-82
2022/05/14 11:15:36;;;;;;;0.08;0.08;;;;;;;25.99;34.87;102244.94;5130251;27;20678;-82
2022/05/14 11:18:18;;;;;;;0.43;0.43;;;;;;;26.12;35.17;102248.66;5128857;28;20080;-80
2022/05/14 11:21:03;;;;;;;0.08;0.08;;;;;;;26.34;33.50;102249.13;5126898;28;20031;-80
2022/05/14 11:23:30;;;;;;;0.10;0.10;;;;;;;26.41;34.53;102254.06;5124633;28;20047;-82
2022/05/14 11:26:14;;;;;;;0.57;0.57;;;;;;;26.53;34.09;102246.06;5125905;28;20948;-80
2022/05/14 11:28:41;;;;;;;0.10;0.10;;;;;;;26.35;33.96;102256.31;5114667;27;20040;-81
2022/05/14 11:31:31;;;;;;;0.30;0.17;;;;;;;26.19;34.63;102250.97;5126348;28;20028;-81
2022/05/14 11:34:01;;;;;;;0.10;0.10;;;;;;;26.10;35.20;102247.88;5125189;27;20042;-81
2022/05/14 11:36:31;;;;;;;0.28;0.28;;;;;;;26.22;34.35;102250.75;5127523;28;20027;-83
2022/05/14 11:42:12;;;;;;;0.35;0.35;;;;;;;26.21;34.77;102249.06;5115068;27;20380;-86
2022/05/14 11:47:47;;;;;;;0.80;0.47;;;;;;;26.05;34.76;102247.25;5092046;28;20406;-84
2022/05/14 11:50:17;;;;;;;0.08;0.08;;;;;;;25.82;35.10;102249.59;5071259;28;20036;-85
2022/05/14 11:52:53;;;;;;;0.30;0.30;;;;;;;25.66;34.21;102243.38;5072262;28;20078;-85
2022/05/14 11:55:25;;;;;;;1.05;0.32;;;;;;;25.48;35.48;102246.28;5074092;28;20029;-86
2022/05/14 11:58:08;;;;;;;0.10;0.10;;;;;;;25.31;34.77;102249.06;5074638;28;20035;-86
2022/05/14 12:00:35;;;;;;;0.00;0.00;;;;;;;25.19;35.63;102243.44;5073895;28;20020;-86
2022/05/14 12:03:29;;;;;;;0.08;0.08;;;;;;;25.14;35.13;102242.84;5070255;28;20075;-88
2022/05/14 12:06:08;;;;;;;0.10;0.10;;;;;;;24.98;34.84;102242.00;5072087;28;20131;-88
2022/05/14 12:11:24;;;;;;;0.10;0.10;;;;;;;25.08;35.16;102231.50;5113488;27;1185413;-86
2022/05/14 12:14:04;;;;;;;1.45;0.45;;;;;;;25.30;34.84;102231.06;5122097;28;20028;-88
2022/05/14 12:16:40;;;;;;;0.00;0.00;;;;;;;25.55;35.51;102235.03;5122904;28;20048;-88
2022/05/14 12:19:14;;;;;;;0.13;0.13;;;;;;;25.95;35.02;102232.53;5111050;28;20386;-88
2022/05/14 12:21:42;;;;;;;0.10;0.10;;;;;;;26.14;32.61;102230.44;5112354;28;20047;-88
2022/05/14 12:24:19;;;;;;;0.77;0.55;;;;;;;26.32;33.21;102230.22;5106227;28;20036;-88
2022/05/14 12:26:45;;;;;;;2.53;0.55;;;;;;;26.34;33.39;102228.25;5103453;28;20158;-88
2022/05/14 12:29:19;;;;;;;0.35;0.28;;;;;;;26.41;33.95;102224.16;5102364;28;20410;-88
2022/05/14 12:34:36;;;;;;;0.00;0.00;;;;;;;26.24;34.25;102241.53;5098372;28;20032;-88
2022/05/14 12:37:07;;;;;;;0.00;0.00;;;;;;;26.21;34.25;102232.75;5100355;28;20028;-88
2022/05/14 12:39:34;;;;;;;0.25;0.25;;;;;;;26.21;33.06;102227.31;5087030;22;20052;-80
2022/05/14 12:42:04;;;;;;;0.00;0.00;;;;;;;26.44;32.80;102223.97;5038141;28;20434;-80
2022/05/14 12:44:36;;;;;;;0.10;0.10;;;;;;;26.75;32.29;102221.94;5039659;28;20029;-82